sensor_id;sensor_type;location;lat;lon;timestamp;P1;durP1;ratioP1;P2;durP2;ratioP2
3781;SDS011;6881;49.962;7.718;2023-11-22T00:01:56;6.43;;;3.53;;
3781;SDS011;6881;49.962;7.718;2023-11-22T00:04:21;5.00;;;3.90;;
3781;SDS011;6881;49.962;7.718;2023-11-22T00:06:47;5.70;;;4.23;;
3781;SDS011;6881;49.962;7.718;2023-11-22T00:09:12;5.03;;;3.90;;
3781;SDS011;6881;49.962;7.718;2023-11-22T00:11:37;3.80;;;3.20;;
3781;SDS011;6881;49.962;7.718;2023-11-22T00:14:03;4.43;;;3.60;;
3781;SDS011;6881;49.962;7.718;2023-11-22T00:16:28;4.40;;;3.50;;
3781;SDS011;6881;49.962;7.718;2023-11-22T00:18:55;4.60;;;3.07;;
3781;SDS011;6881;49.962;7.718;2023-11-22T00:21:20;5.03;;;3.40;;
3781;SDS011;6881;49.962;7.718;2023-11-22T00:23:45;5.03;;;3.70;;
3781;SDS011;6881;49.962;7.718;2023-11-22T00:26:11;4.60;;;3.07;;
3781;SDS011;6881;49.962;7.718;2023-11-22T00:28:37;5.03;;;3.93;;
3781;SDS011;6881;49.962;7.718;2023-11-22T00:31:02;5.93;;;4.37;;
3781;SDS011;6881;49.962;7.718;2023-11-22T00:33:27;5.07;;;4.27;;
3781;SDS011;6881;49.962;7.718;2023-11-22T00:35:53;7.30;;;5.10;;
3781;SDS011;6881;49.962;7.718;2023-11-22T00:38:21;4.53;;;3.97;;
3781;SDS011;6881;49.962;7.718;2023-11-22T00:40:47;8.07;;;5.93;;
3781;SDS011;6881;49.962;7.718;2023-11-22T00:43:12;5.40;;;4.57;;
3781;SDS011;6881;49.962;7.718;2023-11-22T00:45:37;5.77;;;3.17;;
3781;SDS011;6881;49.962;7.718;2023-11-22T00:48:03;5.23;;;3.97;;
3781;SDS011;6881;49.962;7.718;2023-11-22T00:50:28;8.53;;;4.03;;
3781;SDS011;6881;49.962;7.718;2023-11-22T00:52:53;4.37;;;3.60;;
3781;SDS011;6881;49.962;7.718;2023-11-22T00:55:19;5.33;;;3.83;;
3781;SDS011;6881;49.962;7.718;2023-11-22T00:57:44;5.77;;;3.60;;
3781;SDS011;6881;49.962;7.718;2023-11-22T01:00:10;7.97;;;4.50;;
3781;SDS011;6881;49.962;7.718;2023-11-22T01:02:37;3.73;;;3.20;;
3781;SDS011;6881;49.962;7.718;2023-11-22T01:05:04;4.93;;;3.40;;
3781;SDS011;6881;49.962;7.718;2023-11-22T01:07:36;5.00;;;2.93;;
3781;SDS011;6881;49.962;7.718;2023-11-22T01:10:02;4.30;;;3.57;;
3781;SDS011;6881;49.962;7.718;2023-11-22T01:12:28;3.93;;;3.57;;
3781;SDS011;6881;49.962;7.718;2023-11-22T01:14:53;3.93;;;3.53;;
3781;SDS011;6881;49.962;7.718;2023-11-22T01:17:18;7.90;;;4.43;;
3781;SDS011;6881;49.962;7.718;2023-11-22T01:19:44;5.37;;;3.83;;
3781;SDS011;6881;49.962;7.718;2023-11-22T01:22:09;4.83;;;3.50;;
3781;SDS011;6881;49.962;7.718;2023-11-22T01:24:34;3.57;;;2.87;;
3781;SDS011;6881;49.962;7.718;2023-11-22T01:27:02;4.43;;;3.60;;
3781;SDS011;6881;49.962;7.718;2023-11-22T01:29:27;5.10;;;3.03;;
3781;SDS011;6881;49.962;7.718;2023-11-22T01:31:53;6.00;;;3.43;;
3781;SDS011;6881;49.962;7.718;2023-11-22T01:34:20;4.60;;;3.67;;
3781;SDS011;6881;49.962;7.718;2023-11-22T01:36:45;5.00;;;3.57;;
3781;SDS011;6881;49.962;7.718;2023-11-22T01:39:14;6.80;;;4.23;;
3781;SDS011;6881;49.962;7.718;2023-11-22T01:41:39;4.23;;;3.30;;
3781;SDS011;6881;49.962;7.718;2023-11-22T01:44:06;7.23;;;3.90;;
3781;SDS011;6881;49.962;7.718;2023-11-22T01:46:32;5.47;;;4.27;;
3781;SDS011;6881;49.962;7.718;2023-11-22T01:48:58;5.67;;;3.60;;
3781;SDS011;6881;49.962;7.718;2023-11-22T01:51:25;6.73;;;3.50;;
3781;SDS011;6881;49.962;7.718;2023-11-22T01:53:51;4.73;;;3.67;;
3781;SDS011;6881;49.962;7.718;2023-11-22T01:56:19;4.50;;;2.50;;
3781;SDS011;6881;49.962;7.718;2023-11-22T01:58:45;3.87;;;3.37;;
3781;SDS011;6881;49.962;7.718;2023-11-22T02:01:11;5.90;;;4.07;;
3781;SDS011;6881;49.962;7.718;2023-11-22T02:03:37;4.30;;;2.80;;
3781;SDS011;6881;49.962;7.718;2023-11-22T02:06:03;7.87;;;3.80;;
3781;SDS011;6881;49.962;7.718;2023-11-22T02:08:30;5.30;;;3.20;;
3781;SDS011;6881;49.962;7.718;2023-11-22T02:10:59;4.67;;;3.73;;
3781;SDS011;6881;49.962;7.718;2023-11-22T02:13:25;4.23;;;2.67;;
3781;SDS011;6881;49.962;7.718;2023-11-22T02:15:51;6.07;;;3.80;;
3781;SDS011;6881;49.962;7.718;2023-11-22T02:18:17;4.90;;;3.70;;
3781;SDS011;6881;49.962;7.718;2023-11-22T02:20:43;4.70;;;3.30;;
3781;SDS011;6881;49.962;7.718;2023-11-22T02:23:08;6.33;;;3.50;;
3781;SDS011;6881;49.962;7.718;2023-11-22T02:25:34;5.03;;;3.47;;
3781;SDS011;6881;49.962;7.718;2023-11-22T02:28:00;4.47;;;3.70;;
3781;SDS011;6881;49.962;7.718;2023-11-22T02:30:27;7.17;;;4.03;;
3781;SDS011;6881;49.962;7.718;2023-11-22T02:32:52;5.10;;;3.73;;
3781;SDS011;6881;49.962;7.718;2023-11-22T02:35:19;9.37;;;4.40;;
3781;SDS011;6881;49.962;7.718;2023-11-22T02:37:44;6.70;;;3.87;;
3781;SDS011;6881;49.962;7.718;2023-11-22T02:40:20;6.70;;;3.87;;
3781;SDS011;6881;49.962;7.718;2023-11-22T02:42:46;6.77;;;3.37;;
3781;SDS011;6881;49.962;7.718;2023-11-22T02:45:13;4.73;;;3.50;;
3781;SDS011;6881;49.962;7.718;2023-11-22T02:47:39;6.53;;;3.97;;
3781;SDS011;6881;49.962;7.718;2023-11-22T02:50:05;5.47;;;4.20;;
3781;SDS011;6881;49.962;7.718;2023-11-22T02:52:31;5.53;;;4.07;;
3781;SDS011;6881;49.962;7.718;2023-11-22T02:54:57;5.00;;;3.63;;
3781;SDS011;6881;49.962;7.718;2023-11-22T02:57:22;7.53;;;3.50;;
3781;SDS011;6881;49.962;7.718;2023-11-22T02:59:48;6.30;;;3.73;;
3781;SDS011;6881;49.962;7.718;2023-11-22T03:02:13;5.60;;;3.33;;
3781;SDS011;6881;49.962;7.718;2023-11-22T03:04:41;5.00;;;3.40;;
3781;SDS011;6881;49.962;7.718;2023-11-22T03:07:06;3.97;;;3.53;;
3781;SDS011;6881;49.962;7.718;2023-11-22T03:09:32;5.13;;;4.10;;
3781;SDS011;6881;49.962;7.718;2023-11-22T03:11:57;4.90;;;3.70;;
3781;SDS011;6881;49.962;7.718;2023-11-22T03:14:22;5.73;;;3.80;;
3781;SDS011;6881;49.962;7.718;2023-11-22T03:16:48;9.67;;;4.13;;
3781;SDS011;6881;49.962;7.718;2023-11-22T03:19:14;5.07;;;3.60;;
3781;SDS011;6881;49.962;7.718;2023-11-22T03:21:39;5.53;;;3.97;;
3781;SDS011;6881;49.962;7.718;2023-11-22T03:24:06;4.80;;;3.50;;
3781;SDS011;6881;49.962;7.718;2023-11-22T03:26:33;5.43;;;3.50;;
3781;SDS011;6881;49.962;7.718;2023-11-22T03:28:59;6.00;;;3.40;;
3781;SDS011;6881;49.962;7.718;2023-11-22T03:31:24;5.27;;;3.50;;
3781;SDS011;6881;49.962;7.718;2023-11-22T03:33:50;5.10;;;3.67;;
3781;SDS011;6881;49.962;7.718;2023-11-22T03:36:15;5.90;;;3.80;;
3781;SDS011;6881;49.962;7.718;2023-11-22T03:38:40;6.00;;;4.00;;
3781;SDS011;6881;49.962;7.718;2023-11-22T03:41:06;4.57;;;3.67;;
3781;SDS011;6881;49.962;7.718;2023-11-22T03:43:31;5.10;;;4.07;;
3781;SDS011;6881;49.962;7.718;2023-11-22T03:45:56;5.97;;;3.57;;
3781;SDS011;6881;49.962;7.718;2023-11-22T03:48:21;10.67;;;3.73;;
3781;SDS011;6881;49.962;7.718;2023-11-22T03:50:48;6.30;;;4.00;;
3781;SDS011;6881;49.962;7.718;2023-11-22T03:53:16;5.60;;;3.40;;
3781;SDS011;6881;49.962;7.718;2023-11-22T03:55:42;5.93;;;3.60;;
3781;SDS011;6881;49.962;7.718;2023-11-22T03:58:07;4.70;;;3.40;;
3781;SDS011;6881;49.962;7.718;2023-11-22T04:00:33;3.63;;;3.10;;
3781;SDS011;6881;49.962;7.718;2023-11-22T04:02:58;3.23;;;2.93;;
3781;SDS011;6881;49.962;7.718;2023-11-22T04:05:26;4.43;;;3.10;;
3781;SDS011;6881;49.962;7.718;2023-11-22T04:07:51;4.13;;;3.73;;
3781;SDS011;6881;49.962;7.718;2023-11-22T04:10:17;3.10;;;2.70;;
3781;SDS011;6881;49.962;7.718;2023-11-22T04:12:44;4.87;;;3.27;;
3781;SDS011;6881;49.962;7.718;2023-11-22T04:15:09;4.37;;;3.20;;
3781;SDS011;6881;49.962;7.718;2023-11-22T04:17:35;4.97;;;3.57;;
3781;SDS011;6881;49.962;7.718;2023-11-22T04:20:02;5.00;;;3.40;;
3781;SDS011;6881;49.962;7.718;2023-11-22T04:22:33;6.50;;;3.70;;
3781;SDS011;6881;49.962;7.718;2023-11-22T04:24:59;4.90;;;4.10;;
3781;SDS011;6881;49.962;7.718;2023-11-22T04:27:24;5.43;;;3.60;;
3781;SDS011;6881;49.962;7.718;2023-11-22T04:29:49;4.13;;;3.70;;
3781;SDS011;6881;49.962;7.718;2023-11-22T04:32:15;7.00;;;4.07;;
3781;SDS011;6881;49.962;7.718;2023-11-22T04:34:40;5.27;;;3.70;;
3781;SDS011;6881;49.962;7.718;2023-11-22T04:37:05;8.57;;;4.87;;
3781;SDS011;6881;49.962;7.718;2023-11-22T04:39:31;6.70;;;3.80;;
3781;SDS011;6881;49.962;7.718;2023-11-22T04:41:57;7.63;;;4.50;;
3781;SDS011;6881;49.962;7.718;2023-11-22T04:44:22;6.37;;;4.30;;
3781;SDS011;6881;49.962;7.718;2023-11-22T04:46:47;5.30;;;3.87;;
3781;SDS011;6881;49.962;7.718;2023-11-22T04:49:13;9.53;;;4.10;;
3781;SDS011;6881;49.962;7.718;2023-11-22T04:51:38;6.50;;;3.50;;
3781;SDS011;6881;49.962;7.718;2023-11-22T04:54:03;6.00;;;3.77;;
3781;SDS011;6881;49.962;7.718;2023-11-22T04:56:29;6.43;;;3.40;;
3781;SDS011;6881;49.962;7.718;2023-11-22T04:58:54;8.00;;;4.33;;
3781;SDS011;6881;49.962;7.718;2023-11-22T05:01:20;6.10;;;3.80;;
3781;SDS011;6881;49.962;7.718;2023-11-22T05:03:45;4.07;;;3.67;;
3781;SDS011;6881;49.962;7.718;2023-11-22T05:06:10;8.53;;;4.17;;
3781;SDS011;6881;49.962;7.718;2023-11-22T05:08:36;5.00;;;3.90;;
3781;SDS011;6881;49.962;7.718;2023-11-22T05:11:01;5.13;;;3.50;;
3781;SDS011;6881;49.962;7.718;2023-11-22T05:13:27;7.63;;;3.13;;
3781;SDS011;6881;49.962;7.718;2023-11-22T05:15:53;5.50;;;3.87;;
3781;SDS011;6881;49.962;7.718;2023-11-22T05:18:18;7.40;;;4.60;;
3781;SDS011;6881;49.962;7.718;2023-11-22T05:20:43;6.40;;;4.60;;
3781;SDS011;6881;49.962;7.718;2023-11-22T05:23:09;6.30;;;3.97;;
3781;SDS011;6881;49.962;7.718;2023-11-22T05:25:34;4.90;;;3.83;;
3781;SDS011;6881;49.962;7.718;2023-11-22T05:28:00;6.60;;;4.03;;
3781;SDS011;6881;49.962;7.718;2023-11-22T05:30:26;5.00;;;3.53;;
3781;SDS011;6881;49.962;7.718;2023-11-22T05:32:51;5.37;;;3.50;;
3781;SDS011;6881;49.962;7.718;2023-11-22T05:35:17;4.67;;;3.20;;
3781;SDS011;6881;49.962;7.718;2023-11-22T05:37:42;6.40;;;4.07;;
3781;SDS011;6881;49.962;7.718;2023-11-22T05:40:08;5.83;;;4.43;;
3781;SDS011;6881;49.962;7.718;2023-11-22T05:42:35;5.83;;;3.73;;
3781;SDS011;6881;49.962;7.718;2023-11-22T05:45:00;5.07;;;3.60;;
3781;SDS011;6881;49.962;7.718;2023-11-22T05:47:26;5.83;;;2.90;;
3781;SDS011;6881;49.962;7.718;2023-11-22T05:49:52;5.10;;;3.10;;
3781;SDS011;6881;49.962;7.718;2023-11-22T05:52:17;4.67;;;3.33;;
3781;SDS011;6881;49.962;7.718;2023-11-22T05:54:43;6.07;;;3.23;;
3781;SDS011;6881;49.962;7.718;2023-11-22T05:57:08;6.10;;;4.20;;
3781;SDS011;6881;49.962;7.718;2023-11-22T05:59:34;5.23;;;3.20;;
3781;SDS011;6881;49.962;7.718;2023-11-22T06:01:59;4.40;;;3.27;;
3781;SDS011;6881;49.962;7.718;2023-11-22T06:04:25;4.03;;;2.90;;
3781;SDS011;6881;49.962;7.718;2023-11-22T06:06:50;4.97;;;3.70;;
3781;SDS011;6881;49.962;7.718;2023-11-22T06:09:16;4.10;;;2.90;;
3781;SDS011;6881;49.962;7.718;2023-11-22T06:11:41;4.33;;;3.50;;
3781;SDS011;6881;49.962;7.718;2023-11-22T06:14:06;6.53;;;3.77;;
3781;SDS011;6881;49.962;7.718;2023-11-22T06:16:32;4.73;;;3.20;;
3781;SDS011;6881;49.962;7.718;2023-11-22T06:18:58;4.23;;;3.33;;
3781;SDS011;6881;49.962;7.718;2023-11-22T06:21:23;4.43;;;3.17;;
3781;SDS011;6881;49.962;7.718;2023-11-22T06:23:51;5.73;;;3.30;;
3781;SDS011;6881;49.962;7.718;2023-11-22T06:26:17;5.00;;;3.07;;
3781;SDS011;6881;49.962;7.718;2023-11-22T06:28:42;4.10;;;2.97;;
3781;SDS011;6881;49.962;7.718;2023-11-22T06:31:10;4.00;;;2.87;;
3781;SDS011;6881;49.962;7.718;2023-11-22T06:33:36;4.90;;;3.23;;
3781;SDS011;6881;49.962;7.718;2023-11-22T06:36:01;5.43;;;3.00;;
3781;SDS011;6881;49.962;7.718;2023-11-22T06:38:26;4.40;;;2.67;;
3781;SDS011;6881;49.962;7.718;2023-11-22T06:40:53;4.63;;;3.17;;
3781;SDS011;6881;49.962;7.718;2023-11-22T06:43:18;4.00;;;3.10;;
3781;SDS011;6881;49.962;7.718;2023-11-22T06:45:44;5.30;;;3.47;;
3781;SDS011;6881;49.962;7.718;2023-11-22T06:48:10;4.20;;;2.80;;
3781;SDS011;6881;49.962;7.718;2023-11-22T06:50:35;3.90;;;2.43;;
3781;SDS011;6881;49.962;7.718;2023-11-22T06:53:00;3.70;;;2.90;;
3781;SDS011;6881;49.962;7.718;2023-11-22T06:55:28;3.60;;;2.80;;
3781;SDS011;6881;49.962;7.718;2023-11-22T06:57:53;5.13;;;2.80;;
3781;SDS011;6881;49.962;7.718;2023-11-22T07:00:19;4.43;;;2.40;;
3781;SDS011;6881;49.962;7.718;2023-11-22T07:02:45;5.60;;;3.30;;
3781;SDS011;6881;49.962;7.718;2023-11-22T07:05:10;4.47;;;3.00;;
3781;SDS011;6881;49.962;7.718;2023-11-22T07:07:36;4.13;;;3.00;;
3781;SDS011;6881;49.962;7.718;2023-11-22T07:10:02;5.70;;;3.37;;
3781;SDS011;6881;49.962;7.718;2023-11-22T07:12:30;4.57;;;2.83;;
3781;SDS011;6881;49.962;7.718;2023-11-22T07:14:55;4.87;;;2.90;;
3781;SDS011;6881;49.962;7.718;2023-11-22T07:17:21;7.60;;;3.47;;
3781;SDS011;6881;49.962;7.718;2023-11-22T07:19:47;10.10;;;3.70;;
3781;SDS011;6881;49.962;7.718;2023-11-22T07:22:13;5.10;;;2.70;;
3781;SDS011;6881;49.962;7.718;2023-11-22T07:24:43;7.13;;;4.20;;
3781;SDS011;6881;49.962;7.718;2023-11-22T07:27:09;9.57;;;6.30;;
3781;SDS011;6881;49.962;7.718;2023-11-22T07:29:41;4.70;;;3.73;;
3781;SDS011;6881;49.962;7.718;2023-11-22T07:32:07;6.97;;;4.93;;
3781;SDS011;6881;49.962;7.718;2023-11-22T07:34:36;6.77;;;4.80;;
3781;SDS011;6881;49.962;7.718;2023-11-22T07:37:02;6.13;;;3.73;;
3781;SDS011;6881;49.962;7.718;2023-11-22T07:39:28;6.00;;;3.83;;
3781;SDS011;6881;49.962;7.718;2023-11-22T07:41:54;6.77;;;3.87;;
3781;SDS011;6881;49.962;7.718;2023-11-22T07:44:20;6.00;;;3.93;;
3781;SDS011;6881;49.962;7.718;2023-11-22T07:46:49;4.30;;;2.93;;
3781;SDS011;6881;49.962;7.718;2023-11-22T07:49:14;4.83;;;2.13;;
3781;SDS011;6881;49.962;7.718;2023-11-22T07:51:40;4.23;;;2.63;;
3781;SDS011;6881;49.962;7.718;2023-11-22T07:54:06;6.97;;;3.07;;
3781;SDS011;6881;49.962;7.718;2023-11-22T07:56:32;3.70;;;2.43;;
3781;SDS011;6881;49.962;7.718;2023-11-22T07:59:00;5.10;;;2.97;;
3781;SDS011;6881;49.962;7.718;2023-11-22T08:01:26;4.23;;;2.63;;
3781;SDS011;6881;49.962;7.718;2023-11-22T08:03:54;2.13;;;1.93;;
3781;SDS011;6881;49.962;7.718;2023-11-22T08:06:20;2.20;;;1.60;;
3781;SDS011;6881;49.962;7.718;2023-11-22T08:08:46;3.60;;;1.90;;
3781;SDS011;6881;49.962;7.718;2023-11-22T08:11:11;2.10;;;1.73;;
3781;SDS011;6881;49.962;7.718;2023-11-22T08:13:43;2.53;;;1.60;;
3781;SDS011;6881;49.962;7.718;2023-11-22T08:16:10;2.77;;;1.93;;
3781;SDS011;6881;49.962;7.718;2023-11-22T08:18:35;1.97;;;1.40;;
3781;SDS011;6881;49.962;7.718;2023-11-22T08:21:01;2.50;;;1.83;;
3781;SDS011;6881;49.962;7.718;2023-11-22T08:23:26;3.60;;;2.07;;
3781;SDS011;6881;49.962;7.718;2023-11-22T08:25:52;4.40;;;2.27;;
3781;SDS011;6881;49.962;7.718;2023-11-22T08:28:18;3.00;;;2.17;;
3781;SDS011;6881;49.962;7.718;2023-11-22T08:30:43;4.13;;;1.90;;
3781;SDS011;6881;49.962;7.718;2023-11-22T08:33:09;4.17;;;2.70;;
3781;SDS011;6881;49.962;7.718;2023-11-22T08:35:35;3.90;;;2.53;;
3781;SDS011;6881;49.962;7.718;2023-11-22T08:38:00;3.40;;;2.03;;
3781;SDS011;6881;49.962;7.718;2023-11-22T08:40:28;2.20;;;1.87;;
3781;SDS011;6881;49.962;7.718;2023-11-22T08:42:53;3.07;;;2.57;;
3781;SDS011;6881;49.962;7.718;2023-11-22T08:45:19;3.10;;;1.87;;
3781;SDS011;6881;49.962;7.718;2023-11-22T08:47:44;3.37;;;2.23;;
3781;SDS011;6881;49.962;7.718;2023-11-22T08:50:11;3.97;;;2.83;;
3781;SDS011;6881;49.962;7.718;2023-11-22T08:52:36;4.07;;;3.30;;
3781;SDS011;6881;49.962;7.718;2023-11-22T08:55:04;5.63;;;2.53;;
3781;SDS011;6881;49.962;7.718;2023-11-22T08:57:32;3.10;;;2.80;;
3781;SDS011;6881;49.962;7.718;2023-11-22T09:00:01;5.30;;;3.00;;
3781;SDS011;6881;49.962;7.718;2023-11-22T09:02:35;3.47;;;2.57;;
3781;SDS011;6881;49.962;7.718;2023-11-22T09:05:01;3.93;;;2.67;;
3781;SDS011;6881;49.962;7.718;2023-11-22T09:07:31;3.80;;;2.90;;
3781;SDS011;6881;49.962;7.718;2023-11-22T09:09:56;3.80;;;2.43;;
3781;SDS011;6881;49.962;7.718;2023-11-22T09:12:23;2.30;;;2.00;;
3781;SDS011;6881;49.962;7.718;2023-11-22T09:14:48;3.47;;;2.80;;
3781;SDS011;6881;49.962;7.718;2023-11-22T09:17:14;2.90;;;2.50;;
3781;SDS011;6881;49.962;7.718;2023-11-22T09:19:39;6.30;;;3.10;;
3781;SDS011;6881;49.962;7.718;2023-11-22T09:22:04;4.10;;;2.97;;
3781;SDS011;6881;49.962;7.718;2023-11-22T09:24:33;5.53;;;3.30;;
3781;SDS011;6881;49.962;7.718;2023-11-22T09:26:58;4.67;;;3.13;;
3781;SDS011;6881;49.962;7.718;2023-11-22T09:29:25;3.27;;;2.67;;
3781;SDS011;6881;49.962;7.718;2023-11-22T09:31:51;6.50;;;3.67;;
3781;SDS011;6881;49.962;7.718;2023-11-22T09:34:17;3.20;;;2.87;;
3781;SDS011;6881;49.962;7.718;2023-11-22T09:36:42;4.37;;;3.47;;
3781;SDS011;6881;49.962;7.718;2023-11-22T09:39:09;4.27;;;2.13;;
3781;SDS011;6881;49.962;7.718;2023-11-22T09:41:35;3.97;;;2.33;;
3781;SDS011;6881;49.962;7.718;2023-11-22T09:44:00;2.47;;;2.03;;
3781;SDS011;6881;49.962;7.718;2023-11-22T09:46:26;3.23;;;2.33;;
3781;SDS011;6881;49.962;7.718;2023-11-22T09:48:52;2.83;;;2.57;;
3781;SDS011;6881;49.962;7.718;2023-11-22T09:51:21;3.33;;;1.90;;
3781;SDS011;6881;49.962;7.718;2023-11-22T09:56:25;4.27;;;2.53;;
3781;SDS011;6881;49.962;7.718;2023-11-22T09:58:52;3.70;;;2.60;;
3781;SDS011;6881;49.962;7.718;2023-11-22T10:01:22;3.13;;;2.57;;
3781;SDS011;6881;49.962;7.718;2023-11-22T10:03:48;4.60;;;2.40;;
3781;SDS011;6881;49.962;7.718;2023-11-22T10:06:13;3.50;;;2.83;;
3781;SDS011;6881;49.962;7.718;2023-11-22T10:08:40;5.03;;;3.87;;
3781;SDS011;6881;49.962;7.718;2023-11-22T10:11:06;3.83;;;2.50;;
3781;SDS011;6881;49.962;7.718;2023-11-22T10:13:31;3.50;;;2.90;;
3781;SDS011;6881;49.962;7.718;2023-11-22T10:15:57;4.30;;;2.60;;
3781;SDS011;6881;49.962;7.718;2023-11-22T10:18:41;7.80;;;3.93;;
3781;SDS011;6881;49.962;7.718;2023-11-22T10:21:18;3.57;;;2.70;;
3781;SDS011;6881;49.962;7.718;2023-11-22T10:23:43;3.10;;;2.30;;
3781;SDS011;6881;49.962;7.718;2023-11-22T10:26:09;2.33;;;1.97;;
3781;SDS011;6881;49.962;7.718;2023-11-22T10:28:34;3.90;;;3.00;;
3781;SDS011;6881;49.962;7.718;2023-11-22T10:30:59;4.63;;;3.50;;
3781;SDS011;6881;49.962;7.718;2023-11-22T10:33:25;3.27;;;2.53;;
3781;SDS011;6881;49.962;7.718;2023-11-22T10:35:51;3.30;;;3.00;;
3781;SDS011;6881;49.962;7.718;2023-11-22T10:38:18;3.20;;;2.27;;
3781;SDS011;6881;49.962;7.718;2023-11-22T10:40:44;4.00;;;2.77;;
3781;SDS011;6881;49.962;7.718;2023-11-22T10:43:16;3.80;;;2.60;;
3781;SDS011;6881;49.962;7.718;2023-11-22T10:45:42;7.13;;;3.13;;
3781;SDS011;6881;49.962;7.718;2023-11-22T10:48:11;3.07;;;2.47;;
3781;SDS011;6881;49.962;7.718;2023-11-22T10:50:40;3.63;;;2.60;;
3781;SDS011;6881;49.962;7.718;2023-11-22T10:53:06;2.63;;;2.00;;
3781;SDS011;6881;49.962;7.718;2023-11-22T10:55:32;3.10;;;2.70;;
3781;SDS011;6881;49.962;7.718;2023-11-22T10:58:01;3.10;;;2.30;;
3781;SDS011;6881;49.962;7.718;2023-11-22T11:00:27;3.10;;;2.63;;
3781;SDS011;6881;49.962;7.718;2023-11-22T11:02:57;4.20;;;2.80;;
3781;SDS011;6881;49.962;7.718;2023-11-22T11:05:25;3.23;;;2.47;;
3781;SDS011;6881;49.962;7.718;2023-11-22T11:08:00;3.13;;;2.00;;
3781;SDS011;6881;49.962;7.718;2023-11-22T11:10:39;3.17;;;2.77;;
3781;SDS011;6881;49.962;7.718;2023-11-22T11:13:06;3.43;;;2.50;;
3781;SDS011;6881;49.962;7.718;2023-11-22T11:15:31;4.73;;;2.87;;
3781;SDS011;6881;49.962;7.718;2023-11-22T11:17:57;3.33;;;2.70;;
3781;SDS011;6881;49.962;7.718;2023-11-22T11:20:23;4.53;;;3.03;;
3781;SDS011;6881;49.962;7.718;2023-11-22T11:22:48;3.43;;;2.47;;
3781;SDS011;6881;49.962;7.718;2023-11-22T11:25:15;3.90;;;2.77;;
3781;SDS011;6881;49.962;7.718;2023-11-22T11:27:42;3.97;;;3.17;;
3781;SDS011;6881;49.962;7.718;2023-11-22T11:32:56;5.43;;;3.17;;
3781;SDS011;6881;49.962;7.718;2023-11-22T11:35:36;4.30;;;3.23;;
3781;SDS011;6881;49.962;7.718;2023-11-22T11:38:02;3.40;;;2.70;;
3781;SDS011;6881;49.962;7.718;2023-11-22T11:40:31;3.80;;;3.13;;
3781;SDS011;6881;49.962;7.718;2023-11-22T11:42:57;2.97;;;2.67;;
3781;SDS011;6881;49.962;7.718;2023-11-22T11:45:22;4.07;;;3.27;;
3781;SDS011;6881;49.962;7.718;2023-11-22T11:47:47;3.20;;;2.70;;
3781;SDS011;6881;49.962;7.718;2023-11-22T11:50:13;4.30;;;2.97;;
3781;SDS011;6881;49.962;7.718;2023-11-22T11:52:39;4.40;;;3.47;;
3781;SDS011;6881;49.962;7.718;2023-11-22T11:55:05;4.10;;;2.77;;
3781;SDS011;6881;49.962;7.718;2023-11-22T11:57:31;2.67;;;2.40;;
3781;SDS011;6881;49.962;7.718;2023-11-22T11:59:57;3.13;;;2.70;;
3781;SDS011;6881;49.962;7.718;2023-11-22T12:02:23;2.77;;;2.53;;
3781;SDS011;6881;49.962;7.718;2023-11-22T12:04:48;2.93;;;2.37;;
3781;SDS011;6881;49.962;7.718;2023-11-22T12:07:13;2.77;;;2.13;;
3781;SDS011;6881;49.962;7.718;2023-11-22T12:09:39;4.23;;;3.13;;
3781;SDS011;6881;49.962;7.718;2023-11-22T12:12:04;3.03;;;2.60;;
3781;SDS011;6881;49.962;7.718;2023-11-22T12:14:30;5.10;;;3.23;;
3781;SDS011;6881;49.962;7.718;2023-11-22T12:16:56;3.37;;;3.00;;
3781;SDS011;6881;49.962;7.718;2023-11-22T12:19:23;4.60;;;2.70;;
3781;SDS011;6881;49.962;7.718;2023-11-22T12:21:49;3.43;;;2.87;;
3781;SDS011;6881;49.962;7.718;2023-11-22T12:24:15;4.13;;;2.67;;
3781;SDS011;6881;49.962;7.718;2023-11-22T12:26:44;3.50;;;2.37;;
3781;SDS011;6881;49.962;7.718;2023-11-22T12:29:10;3.20;;;2.40;;
3781;SDS011;6881;49.962;7.718;2023-11-22T12:31:43;4.10;;;2.50;;
3781;SDS011;6881;49.962;7.718;2023-11-22T12:34:15;3.20;;;2.60;;
3781;SDS011;6881;49.962;7.718;2023-11-22T12:36:42;3.30;;;2.53;;
3781;SDS011;6881;49.962;7.718;2023-11-22T12:39:10;4.03;;;2.80;;
3781;SDS011;6881;49.962;7.718;2023-11-22T12:41:41;7.53;;;3.20;;
3781;SDS011;6881;49.962;7.718;2023-11-22T12:44:10;4.40;;;2.60;;
3781;SDS011;6881;49.962;7.718;2023-11-22T12:46:50;4.50;;;2.77;;
3781;SDS011;6881;49.962;7.718;2023-11-22T12:49:26;5.27;;;3.50;;
3781;SDS011;6881;49.962;7.718;2023-11-22T12:51:52;3.90;;;2.87;;
3781;SDS011;6881;49.962;7.718;2023-11-22T12:54:19;4.97;;;2.80;;
3781;SDS011;6881;49.962;7.718;2023-11-22T12:56:49;2.63;;;2.03;;
3781;SDS011;6881;49.962;7.718;2023-11-22T12:59:16;3.10;;;2.60;;
3781;SDS011;6881;49.962;7.718;2023-11-22T13:01:41;3.00;;;2.63;;
3781;SDS011;6881;49.962;7.718;2023-11-22T13:04:07;4.33;;;2.67;;
3781;SDS011;6881;49.962;7.718;2023-11-22T13:06:33;4.30;;;3.63;;
3781;SDS011;6881;49.962;7.718;2023-11-22T13:08:58;7.40;;;3.30;;
3781;SDS011;6881;49.962;7.718;2023-11-22T13:11:23;4.30;;;2.53;;
3781;SDS011;6881;49.962;7.718;2023-11-22T13:13:49;3.20;;;2.37;;
3781;SDS011;6881;49.962;7.718;2023-11-22T13:16:15;3.77;;;3.17;;
3781;SDS011;6881;49.962;7.718;2023-11-22T13:18:41;3.67;;;2.87;;
3781;SDS011;6881;49.962;7.718;2023-11-22T13:21:06;4.43;;;2.60;;
3781;SDS011;6881;49.962;7.718;2023-11-22T13:23:32;5.93;;;2.50;;
3781;SDS011;6881;49.962;7.718;2023-11-22T13:25:58;6.90;;;2.43;;
3781;SDS011;6881;49.962;7.718;2023-11-22T13:28:23;4.37;;;2.40;;
3781;SDS011;6881;49.962;7.718;2023-11-22T13:30:50;2.50;;;2.30;;
3781;SDS011;6881;49.962;7.718;2023-11-22T13:33:15;4.33;;;2.33;;
3781;SDS011;6881;49.962;7.718;2023-11-22T13:35:41;1.83;;;1.53;;
3781;SDS011;6881;49.962;7.718;2023-11-22T13:38:06;3.83;;;2.77;;
3781;SDS011;6881;49.962;7.718;2023-11-22T13:40:36;5.40;;;2.23;;
3781;SDS011;6881;49.962;7.718;2023-11-22T13:43:04;4.60;;;1.87;;
3781;SDS011;6881;49.962;7.718;2023-11-22T13:45:29;3.23;;;2.60;;
3781;SDS011;6881;49.962;7.718;2023-11-22T13:47:55;2.70;;;2.30;;
3781;SDS011;6881;49.962;7.718;2023-11-22T13:50:25;3.20;;;2.90;;
3781;SDS011;6881;49.962;7.718;2023-11-22T13:52:52;3.07;;;1.93;;
3781;SDS011;6881;49.962;7.718;2023-11-22T13:55:18;4.97;;;2.63;;
3781;SDS011;6881;49.962;7.718;2023-11-22T13:57:50;2.37;;;1.80;;
3781;SDS011;6881;49.962;7.718;2023-11-22T14:00:17;3.30;;;2.63;;
3781;SDS011;6881;49.962;7.718;2023-11-22T14:02:47;3.10;;;2.40;;
3781;SDS011;6881;49.962;7.718;2023-11-22T14:05:13;3.90;;;3.50;;
3781;SDS011;6881;49.962;7.718;2023-11-22T14:07:40;4.83;;;2.70;;
3781;SDS011;6881;49.962;7.718;2023-11-22T14:10:06;2.47;;;1.87;;
3781;SDS011;6881;49.962;7.718;2023-11-22T14:12:32;3.10;;;2.40;;
3781;SDS011;6881;49.962;7.718;2023-11-22T14:14:58;4.57;;;2.40;;
3781;SDS011;6881;49.962;7.718;2023-11-22T14:17:24;3.70;;;3.30;;
3781;SDS011;6881;49.962;7.718;2023-11-22T14:19:50;6.43;;;4.43;;
3781;SDS011;6881;49.962;7.718;2023-11-22T14:22:16;4.97;;;3.40;;
3781;SDS011;6881;49.962;7.718;2023-11-22T14:24:42;4.83;;;4.30;;
3781;SDS011;6881;49.962;7.718;2023-11-22T14:27:10;6.50;;;4.70;;
3781;SDS011;6881;49.962;7.718;2023-11-22T14:29:35;4.03;;;2.80;;
3781;SDS011;6881;49.962;7.718;2023-11-22T14:32:01;3.10;;;2.33;;
3781;SDS011;6881;49.962;7.718;2023-11-22T14:34:27;3.50;;;2.87;;
3781;SDS011;6881;49.962;7.718;2023-11-22T14:36:52;2.70;;;2.40;;
3781;SDS011;6881;49.962;7.718;2023-11-22T14:39:18;3.00;;;2.40;;
3781;SDS011;6881;49.962;7.718;2023-11-22T14:41:44;2.73;;;2.07;;
3781;SDS011;6881;49.962;7.718;2023-11-22T14:44:10;3.77;;;2.17;;
3781;SDS011;6881;49.962;7.718;2023-11-22T14:46:35;2.60;;;2.33;;
3781;SDS011;6881;49.962;7.718;2023-11-22T14:49:02;4.40;;;2.47;;
3781;SDS011;6881;49.962;7.718;2023-11-22T14:51:28;3.13;;;2.30;;
3781;SDS011;6881;49.962;7.718;2023-11-22T14:53:53;3.40;;;2.03;;
3781;SDS011;6881;49.962;7.718;2023-11-22T14:56:18;4.83;;;2.40;;
3781;SDS011;6881;49.962;7.718;2023-11-22T14:58:44;3.27;;;1.90;;
3781;SDS011;6881;49.962;7.718;2023-11-22T15:01:10;2.73;;;1.97;;
3781;SDS011;6881;49.962;7.718;2023-11-22T15:03:35;3.37;;;1.90;;
3781;SDS011;6881;49.962;7.718;2023-11-22T15:06:01;4.13;;;2.60;;
3781;SDS011;6881;49.962;7.718;2023-11-22T15:08:27;3.33;;;2.70;;
3781;SDS011;6881;49.962;7.718;2023-11-22T15:10:56;3.73;;;3.27;;
3781;SDS011;6881;49.962;7.718;2023-11-22T15:13:21;4.17;;;2.90;;
3781;SDS011;6881;49.962;7.718;2023-11-22T15:15:47;4.33;;;3.57;;